Crosby, Washington
Current Conditions -  °F | °C
As of 11:15 AM on Friday 28 Nov 2014 (Local Time) from KPWT Reporting Station
Overcast Overcast  
Wind Chill:   Ceiling: 1800
Heat Index:   Visibility: 8mi
Dew Point:   Wind: 17mph
Humidity: 93%   Direction: 40°NE
Pressure: 29.51"   Gusts: NA
Location:  47.5964°N, 122.62°W
Report Text: KPWT 281915Z AUTO 04015KT 8SM BKN018 OVC024 06/05 A2951 RMK AO1 P0009
Loading
Personal Weather Stations






























Interactive Weather Map New forecast layout! Learn more

10-Day Weather Forecast

Advertisements
Track Severe Weather on mobile